Forside
METAR-TAF:

METAR-TAF

Lufthavne :

Tan Son Nhat Lufthavn

Ho Chi Minh-byen, Vietnam

Breddekreds: 10-49N, længdekreds: 106-40E, højde: 19 m

Aktuelle vejr

Denne rapport blev lavet for 16 minutter siden, kl. 02:30 UTC
Vind 9 kt fra øst, varierende mellem østnordøst og sydsydøst
Temperatur 31°C
Fugtighed 63%
Tryk 1016 hPa
Sigt 10 km eller mere
Nogle få skyer i en højde af 1700 ft

METAR: VVTS 210230Z 10009KT 060V150 9999 FEW017 31/23 Q1016 NOSIG

Tid: 09:46 (02:46 UTC)

Vejrudsigter

Denne rapport blev lavet for 3 timer og 46 minutter siden, kl. 23:00 UTC
Foreløbig gælder fra 21 på 00 UTC til 22 på 06 UTC
Vind 8 kt fra østsydøst
Sigt 10 km eller mere
Spredte skyer i en højde af 1700 ft
Midlertidig
fra 21 på 06 UTC til 21 på 10 UTC
Vind 15 kt fra østsydøst med vindstød på up til 25 kt

TAF: VVTS 202300Z 2100/2206 12008KT 9999 SCT017 TEMPO 2106/2110 12015G25KT

Vejrobservationer og prognoser fra mere end 4000 lufthavne (METAR og TAF).

De gule og røde prikker repræsenterer de meteorologiske stationer.

Flyt musen over at se navnet på stationen.

Så klik over at se vejr observationer og prognoser.

At skifte det kort: Klik på de grønne knapper med et sort kors for at zoome ind; på den grønne knap med en bindestreg for at zoome ud; eller på de grønne pile for tilstødende kort.


METAR-TAF: